Time;durP1;ratioP1;P1;durP2;ratioP2;P2;SDS_P1;SDS_P2;PMS_P1;PMS_P2;Temp;Humidity;BMP_temperature;BMP_pressure;BME280_temperature;BME280_humidity;BME280_pressure;Samples;Min_cycle;Max_cycle;Signal;HPM_P1;HPM_P2
2022/07/30 00:00:32;;;;;;;16.30;15.00;;;17.20;99.90;;;16.26;100.00;97897.13;5066508;28;20998;-72
2022/07/30 00:03:00;;;;;;;17.57;16.00;;;17.20;99.90;;;16.36;100.00;97899.97;5062036;28;20510;-74
2022/07/30 00:05:28;;;;;;;19.83;18.07;;;17.20;99.90;;;16.30;100.00;97900.97;5064887;28;21028;-74
2022/07/30 00:07:55;;;;;;;18.03;16.67;;;17.10;99.90;;;16.42;100.00;97893.47;5074100;28;20472;-71
2022/07/30 00:10:23;;;;;;;18.73;17.13;;;17.20;99.90;;;16.41;100.00;97891.03;5066359;28;20550;-72
2022/07/30 00:12:50;;;;;;;19.37;17.67;;;17.30;99.90;;;16.51;100.00;97882.13;5073805;28;20506;-75
2022/07/30 00:15:18;;;;;;;19.30;17.67;;;17.30;99.90;;;16.48;100.00;97885.38;5059534;28;20567;-73
2022/07/30 00:17:45;;;;;;;17.83;16.10;;;17.30;99.90;;;16.49;100.00;97890.56;5053776;28;20481;-72
2022/07/30 00:20:13;;;;;;;20.23;18.53;;;17.40;99.90;;;16.45;100.00;97897.63;5049346;28;20463;-73
2022/07/30 00:22:42;;;;;;;19.30;17.70;;;17.40;99.90;;;16.48;100.00;97888.09;5067714;28;20540;-75
2022/07/30 00:25:09;;;;;;;17.90;16.50;;;17.40;99.90;;;16.47;100.00;97884.53;5067146;28;20517;-72
2022/07/30 00:27:37;;;;;;;19.73;17.93;;;17.40;99.90;;;16.46;100.00;97882.09;5062869;28;20467;-73
2022/07/30 00:30:06;;;;;;;19.40;17.80;;;17.40;99.90;;;16.46;100.00;97887.53;5059372;28;20815;-79
2022/07/30 00:32:33;;;;;;;20.23;18.50;;;17.40;99.90;;;16.45;100.00;97883.13;5064234;28;20488;-76
2022/07/30 00:35:00;;;;;;;19.50;17.97;;;17.30;99.90;;;16.38;100.00;97880.66;5066293;28;20516;-71
2022/07/30 00:37:27;;;;;;;20.60;18.63;;;17.30;99.90;;;16.39;100.00;97874.13;5062042;28;20499;-74
2022/07/30 00:39:56;;;;;;;18.00;16.53;;;17.30;99.90;;;16.37;100.00;97884.44;5070346;28;21063;-78
2022/07/30 00:42:25;;;;;;;19.40;17.70;;;17.30;99.90;;;16.28;100.00;97886.78;5072909;28;20463;-75
2022/07/30 00:44:52;;;;;;;20.73;18.93;;;17.20;99.90;;;16.22;100.00;97885.09;5076095;28;20471;-71
2022/07/30 00:47:25;;;;;;;19.40;17.80;;;17.20;99.90;;;16.38;100.00;97892.34;5075647;28;20521;-73
2022/07/30 00:49:52;;;;;;;21.07;19.27;;;17.20;99.90;;;16.33;100.00;97892.31;5081306;28;20461;-72
2022/07/30 00:52:19;;;;;;;19.60;17.80;;;17.20;99.90;;;16.38;100.00;97897.81;5065303;28;20467;-74
2022/07/30 00:54:47;;;;;;;20.90;19.20;;;17.20;99.90;;;16.40;100.00;97895.66;5065181;28;20542;-72
2022/07/30 00:57:15;;;;;;;20.47;18.70;;;17.30;99.90;;;16.48;100.00;97888.09;5081862;28;20950;-73
2022/07/30 00:59:42;;;;;;;19.67;17.93;;;17.30;99.90;;;16.41;100.00;97897.28;5058101;28;20467;-73
2022/07/30 01:02:11;;;;;;;20.73;18.90;;;17.30;99.90;;;16.24;100.00;97886.50;5060845;28;20456;-76
2022/07/30 01:04:38;;;;;;;21.37;19.20;;;17.20;99.90;;;16.28;100.00;97894.97;5074880;28;20555;-75
2022/07/30 01:07:05;;;;;;;19.80;18.10;;;17.20;99.90;;;16.32;100.00;97898.84;5057832;28;20451;-74
2022/07/30 01:09:33;;;;;;;19.40;17.70;;;17.20;99.90;;;16.30;100.00;97887.34;5061100;28;20529;-73
2022/07/30 01:12:00;;;;;;;20.03;18.40;;;17.20;99.90;;;16.44;100.00;97898.69;5062089;28;21149;-73
2022/07/30 01:14:29;;;;;;;21.23;19.63;;;17.30;99.90;;;16.49;100.00;97889.75;5067686;28;21024;-72
2022/07/30 01:16:56;;;;;;;18.53;17.03;;;17.30;99.90;;;16.48;100.00;97890.84;5062306;28;20847;-79
2022/07/30 01:22:22;;;;;;;18.83;17.33;;;17.20;99.90;;;16.16;100.00;97894.31;5064667;28;20499;-74
2022/07/30 01:24:58;;;;;;;19.00;17.40;;;17.10;99.90;;;16.10;100.00;97887.97;5066939;28;20505;-74
2022/07/30 01:27:30;;;;;;;20.33;18.63;;;17.10;99.90;;;16.05;100.00;97899.63;5068823;28;20539;-73
2022/07/30 01:29:59;;;;;;;20.90;19.10;;;16.90;99.90;;;15.64;100.00;97839.16;5100878;28;20470;-75
2022/07/30 01:32:27;;;;;;;21.43;19.63;;;16.90;99.90;;;15.84;100.00;97898.50;5071273;28;20483;-77
2022/07/30 01:34:57;;;;;;;20.77;18.87;;;16.80;99.90;;;15.88;100.00;97896.94;5067243;28;20468;-74
2022/07/30 01:37:26;;;;;;;21.57;19.43;;;16.80;99.90;;;15.92;100.00;97902.72;5063492;28;20553;-74
2022/07/30 01:39:54;;;;;;;22.90;20.80;;;16.70;99.90;;;15.93;100.00;97897.03;5066108;28;20460;-73
2022/07/30 01:42:24;;;;;;;20.47;18.77;;;16.70;99.90;;;16.11;100.00;97903.25;5065941;28;21089;-73
2022/07/30 01:44:54;;;;;;;21.40;19.70;;;16.90;99.90;;;16.08;100.00;97909.22;5063747;28;20548;-76
2022/07/30 01:47:24;;;;;;;21.03;19.03;;;16.90;99.90;;;16.13;100.00;97910.06;5067126;28;20557;-76
2022/07/30 01:49:53;;;;;;;21.93;19.80;;;17.00;99.90;;;16.00;100.00;97913.19;5066838;28;20864;-73
2022/07/30 01:52:22;;;;;;;22.50;20.60;;;16.90;99.90;;;16.00;100.00;97908.56;5062529;28;20551;-77
2022/07/30 01:54:52;;;;;;;23.80;21.70;;;16.90;99.90;;;15.92;100.00;97921.81;5064736;28;20545;-72
2022/07/30 01:57:21;;;;;;;22.83;20.73;;;16.80;99.90;;;16.04;100.00;97911.59;5066688;28;20496;-73
2022/07/30 01:59:55;;;;;;;25.10;22.90;;;16.90;99.90;;;16.05;100.00;97910.53;5068011;28;20459;-75
2022/07/30 02:02:22;;;;;;;25.43;23.03;;;16.90;99.90;;;15.96;100.00;97917.47;5066448;28;20463;-75
2022/07/30 02:04:50;;;;;;;24.87;22.47;;;16.90;99.90;;;15.86;100.00;97918.16;5065060;28;20481;-73
2022/07/30 02:07:23;;;;;;;24.27;22.10;;;16.80;99.90;;;15.76;100.00;97918.84;5063854;28;20477;-74
2022/07/30 02:09:56;;;;;;;27.00;24.57;;;16.70;99.90;;;15.66;100.00;97905.91;5066671;28;20468;-73
2022/07/30 02:12:27;;;;;;;26.43;24.10;;;16.60;99.90;;;15.85;100.00;97900.16;5067110;28;20451;-73
2022/07/30 02:15:09;;;;;;;24.53;22.33;;;16.70;99.90;;;15.79;100.00;97907.44;5099506;28;21200;-74
2022/07/30 02:17:42;;;;;;;25.30;23.10;;;16.70;99.90;;;15.67;100.00;97906.72;5065478;28;20545;-72
2022/07/30 02:20:12;;;;;;;25.50;23.20;;;16.60;99.90;;;15.64;100.00;97899.06;5066538;28;20492;-74
2022/07/30 02:22:43;;;;;;;26.57;24.20;;;16.50;99.90;;;15.62;100.00;97907.50;5065278;28;20536;-72
2022/07/30 02:25:17;;;;;;;23.87;21.50;;;16.50;99.90;;;15.25;100.00;97869.94;5067525;28;20463;-74
2022/07/30 02:27:49;;;;;;;25.90;23.37;;;16.50;99.90;;;15.41;100.00;97890.06;5066643;28;20517;-71
2022/07/30 02:30:18;;;;;;;26.43;24.00;;;16.40;99.90;;;15.55;100.00;97913.13;5065746;28;20474;-71
2022/07/30 02:32:49;;;;;;;25.80;23.40;;;16.50;99.90;;;15.58;100.00;97911.78;5064699;28;20463;-73
2022/07/30 02:35:20;;;;;;;29.73;26.93;;;16.50;99.90;;;15.61;100.00;97905.03;5068267;28;20468;-74
2022/07/30 02:37:50;;;;;;;27.27;24.87;;;16.50;99.90;;;15.78;100.00;97911.25;5066841;28;20518;-72
2022/07/30 02:40:20;;;;;;;27.27;24.87;;;16.60;99.90;;;15.66;100.00;97907.81;5068522;28;20474;-75
2022/07/30 02:42:51;;;;;;;28.20;25.70;;;16.60;99.90;;;15.69;100.00;97904.56;5067362;28;20513;-72
2022/07/30 02:45:22;;;;;;;28.50;25.77;;;16.60;99.90;;;15.65;100.00;97907.00;5063700;28;20464;-72
2022/07/30 02:47:53;;;;;;;29.00;26.20;;;16.50;99.90;;;15.56;100.00;97903.88;5067599;28;20724;-73
2022/07/30 02:50:24;;;;;;;27.80;25.30;;;16.40;99.90;;;15.63;100.00;97898.25;5064381;28;21031;-74
2022/07/30 02:52:53;;;;;;;30.47;27.67;;;16.50;99.90;;;15.54;100.00;97906.03;5061307;28;20570;-74
2022/07/30 02:55:22;;;;;;;29.50;26.67;;;16.40;99.90;;;15.67;100.00;97901.28;5067434;28;20455;-72
2022/07/30 02:57:51;;;;;;;31.03;28.13;;;16.40;99.90;;;15.60;100.00;97906.91;5063334;28;20477;-73
2022/07/30 03:00:21;;;;;;;28.70;26.10;;;16.40;99.90;;;15.55;100.00;97904.97;5060548;28;20481;-73
2022/07/30 03:02:48;;;;;;;33.43;30.03;;;16.40;99.90;;;15.44;100.00;97897.72;5063660;28;20532;-80
2022/07/30 03:05:16;;;;;;;32.67;29.57;;;16.40;99.90;;;15.47;100.00;97905.38;5064722;28;21032;-70
2022/07/30 03:07:45;;;;;;;33.07;29.90;;;16.40;99.90;;;15.46;100.00;97909.16;5062352;28;20464;-72
2022/07/30 03:10:14;;;;;;;33.90;30.50;;;16.40;99.90;;;15.53;100.00;97907.06;5064674;28;20467;-75
2022/07/30 03:12:45;;;;;;;33.63;30.03;;;16.40;99.90;;;15.48;100.00;97906.22;5064933;28;20451;-72
2022/07/30 03:15:14;;;;;;;31.70;28.60;;;16.40;99.90;;;15.60;100.00;97895.19;5064391;28;20455;-75
2022/07/30 03:17:50;;;;;;;37.77;33.90;;;16.50;99.90;;;15.71;100.00;97907.88;5098895;28;20500;-72
2022/07/30 03:20:20;;;;;;;38.30;33.23;;;16.60;99.90;;;15.63;100.00;97898.25;5069998;28;20480;-73
2022/07/30 03:22:53;;;;;;;40.67;34.63;;;16.60;99.90;;;15.60;100.00;97903.38;5061905;28;20537;-73
2022/07/30 03:25:25;;;;;;;35.33;31.63;;;16.50;99.90;;;15.71;100.00;97907.88;5068906;28;20455;-72
2022/07/30 03:27:54;;;;;;;33.37;30.17;;;16.60;99.90;;;15.65;100.00;97908.88;5068088;28;20456;-73
2022/07/30 03:30:23;;;;;;;36.30;32.60;;;16.60;99.90;;;15.50;100.00;97899.41;5066242;28;20459;-76
2022/07/30 03:32:53;;;;;;;37.43;33.50;;;16.50;99.90;;;15.47;100.00;97905.38;5092357;28;20465;-75
2022/07/30 03:35:23;;;;;;;34.53;30.80;;;16.40;99.90;;;15.48;100.00;97912.47;5085728;28;20479;-74
2022/07/30 03:37:53;;;;;;;34.30;30.73;;;16.40;99.90;;;15.44;100.00;97922.22;5076616;28;21001;-73
2022/07/30 03:40:22;;;;;;;34.10;30.60;;;16.40;99.90;;;15.37;100.00;97916.09;5071173;28;20459;-71
2022/07/30 03:42:50;;;;;;;34.53;31.03;;;16.30;99.90;;;15.43;100.00;97918.66;5067501;28;20455;-72
2022/07/30 03:45:18;;;;;;;36.73;32.40;;;16.30;99.90;;;15.55;100.00;97918.56;5064351;28;20858;-73
2022/07/30 03:47:47;;;;;;;35.90;32.00;;;16.40;99.90;;;15.52;100.00;97913.59;5064922;28;20508;-75
2022/07/30 03:50:16;;;;;;;37.80;33.07;;;16.40;99.90;;;15.46;100.00;97919.22;5059032;28;20466;-72
2022/07/30 03:52:44;;;;;;;37.07;33.07;;;16.30;99.90;;;15.39;100.00;97924.84;5062754;28;20471;-76
2022/07/30 03:55:12;;;;;;;37.47;33.57;;;16.30;99.90;;;15.39;100.00;97922.13;5068955;28;20959;-74
2022/07/30 03:57:39;;;;;;;38.33;33.70;;;16.20;99.90;;;15.41;100.00;97928.97;5063559;28;20976;-73
2022/07/30 04:00:14;;;;;;;37.67;33.77;;;16.30;99.90;;;15.29;100.00;97923.63;5064124;28;20462;-73
2022/07/30 04:02:42;;;;;;;38.63;34.23;;;16.20;99.90;;;15.19;100.00;97915.28;5062610;28;20484;-74
2022/07/30 04:05:11;;;;;;;40.10;35.10;;;16.10;99.90;;;15.31;100.00;97920.63;5073098;28;20463;-71
2022/07/30 04:07:40;;;;;;;39.10;34.43;;;16.20;99.90;;;15.37;100.00;97916.94;5063043;28;20500;-71
2022/07/30 04:10:09;;;;;;;38.87;33.03;;;16.30;99.90;;;15.52;100.00;97929.94;5058882;28;20938;-72
2022/07/30 04:12:37;;;;;;;39.90;35.57;;;16.30;99.90;;;15.41;100.00;97928.16;5064495;28;20500;-71
2022/07/30 04:15:05;;;;;;;34.83;31.30;;;16.40;99.90;;;15.47;100.00;97938.03;5065903;28;20463;-79
2022/07/30 04:17:38;;;;;;;31.67;28.63;;;16.40;99.90;;;15.46;100.00;97941.84;5071319;28;20539;-74
2022/07/30 04:20:12;;;;;;;35.30;31.90;;;16.40;99.90;;;15.43;100.00;97942.34;5052916;28;20882;-75
2022/07/30 04:22:42;;;;;;;36.30;32.70;;;16.40;99.90;;;15.32;100.00;97951.41;5062539;28;20594;-73
2022/07/30 04:25:10;;;;;;;34.20;30.80;;;16.30;99.90;;;15.51;100.00;97949.25;5063190;28;20460;-73
2022/07/30 04:27:39;;;;;;;33.53;30.13;;;16.40;99.90;;;15.62;100.00;97951.06;5066687;28;20449;-73
2022/07/30 04:30:07;;;;;;;31.30;28.40;;;16.50;99.90;;;15.70;100.00;97958.81;5067114;28;20470;-74
2022/07/30 04:32:36;;;;;;;32.33;29.13;;;16.60;99.90;;;15.75;100.00;97958.06;5062428;28;20526;-74
2022/07/30 04:35:04;;;;;;;32.13;29.03;;;16.60;99.90;;;15.82;100.00;97955.16;5064453;28;20462;-74
2022/07/30 04:37:32;;;;;;;33.57;30.27;;;16.70;99.90;;;15.85;100.00;97960.09;5060647;28;20506;-76
2022/07/30 04:40:00;;;;;;;33.23;30.03;;;16.70;99.90;;;15.96;100.00;97955.63;5065398;28;20461;-73
2022/07/30 04:42:29;;;;;;;31.60;28.60;;;16.80;99.90;;;16.03;100.00;97964.47;5065113;28;20453;-74
2022/07/30 04:44:58;;;;;;;31.47;28.50;;;16.90;99.90;;;16.03;100.00;97967.19;5063290;28;20464;-73
2022/07/30 04:47:25;;;;;;;31.13;28.17;;;16.90;99.90;;;16.08;100.00;97964.50;5067182;28;20470;-72
2022/07/30 04:49:54;;;;;;;32.70;29.80;;;17.00;99.90;;;15.77;100.00;97925.94;5067518;28;20513;-77
2022/07/30 04:52:23;;;;;;;29.83;27.17;;;16.90;99.90;;;16.21;100.00;97973.41;5065406;28;20458;-72
2022/07/30 04:54:56;;;;;;;28.60;26.10;;;17.10;99.90;;;16.34;100.00;97959.38;5068066;28;20513;-74
2022/07/30 04:57:26;;;;;;;27.93;25.60;;;17.10;99.90;;;16.39;100.00;97970.34;5066799;28;20561;-73
2022/07/30 04:59:53;;;;;;;26.93;24.60;;;17.20;99.90;;;16.39;99.64;97970.34;5063852;28;20470;-73
2022/07/30 05:02:23;;;;;;;28.23;25.60;;;17.30;99.90;;;16.60;98.97;97969.75;5066619;28;20467;-72
2022/07/30 05:04:51;;;;;;;24.87;22.67;;;17.40;99.90;;;16.64;97.21;97966.25;5062981;28;20471;-72
2022/07/30 05:07:21;;;;;;;27.30;24.90;;;17.50;99.90;;;16.63;97.27;97967.34;5064870;28;20858;-71
2022/07/30 05:09:48;;;;;;;27.23;24.93;;;17.50;99.90;;;16.48;97.39;97978.09;5075744;28;20955;-71
2022/07/30 05:12:16;;;;;;;26.70;24.17;;;17.40;99.90;;;16.46;99.02;97974.78;5056763;28;20484;-71
2022/07/30 05:14:46;;;;;;;26.00;23.70;;;17.30;99.90;;;15.96;100.00;97952.91;5067724;28;20491;-74
2022/07/30 05:17:13;;;;;;;29.43;26.83;;;17.20;99.90;;;16.07;100.00;97984.66;5040597;28;20442;-72
2022/07/30 05:19:40;;;;;;;28.60;25.70;;;17.00;99.90;;;16.02;100.00;97998.22;5058796;28;20462;-70
2022/07/30 05:22:07;;;;;;;28.07;25.43;;;17.00;99.90;;;16.20;100.00;97994.38;5056327;28;20468;-73
2022/07/30 05:24:35;;;;;;;29.63;26.67;;;17.00;99.90;;;16.04;100.00;97998.81;5063947;28;20964;-72
2022/07/30 05:27:02;;;;;;;29.23;26.63;;;17.00;99.90;;;16.22;100.00;97988.66;5059489;28;20830;-72
2022/07/30 05:29:29;;;;;;;30.43;27.73;;;17.10;99.90;;;16.31;100.00;97994.50;5064632;28;20460;-69
2022/07/30 05:31:57;;;;;;;32.47;29.60;;;17.10;99.90;;;16.06;100.00;98002.09;5058339;28;20955;-74
2022/07/30 05:34:24;;;;;;;32.87;29.63;;;17.00;99.90;;;16.06;100.00;98010.28;5059821;28;20455;-73
2022/07/30 05:36:52;;;;;;;37.43;33.47;;;17.00;99.90;;;15.99;100.00;98009.59;5063676;28;21126;-75
2022/07/30 05:39:19;;;;;;;35.43;31.83;;;17.00;99.90;;;15.98;100.00;98002.50;5056554;28;20502;-77
2022/07/30 05:41:46;;;;;;;34.57;30.97;;;16.90;99.90;;;16.04;100.00;98017.03;5072083;28;20458;-76
2022/07/30 05:44:15;;;;;;;38.20;34.37;;;17.00;99.90;;;16.15;100.00;98013.38;5059038;28;20467;-77
2022/07/30 05:46:42;;;;;;;36.80;32.80;;;17.00;99.90;;;16.11;100.00;98009.53;5073998;28;21093;-78
2022/07/30 05:49:10;;;;;;;36.20;32.40;;;17.10;99.90;;;16.06;100.00;98013.00;5065210;28;20471;-76
2022/07/30 05:51:38;;;;;;;40.40;36.00;;;17.00;99.90;;;16.02;100.00;98011.84;5090173;28;20460;-75
2022/07/30 05:54:05;;;;;;;38.40;34.40;;;17.00;99.90;;;16.03;100.00;98010.78;5077052;28;20458;-74
2022/07/30 05:56:33;;;;;;;38.07;34.17;;;17.00;99.90;;;15.95;100.00;98013.91;5110529;28;20490;-76
2022/07/30 05:59:00;;;;;;;38.47;34.57;;;16.90;99.90;;;15.94;100.00;98020.44;5067719;28;20498;-77
2022/07/30 06:01:27;;;;;;;37.43;33.50;;;16.90;99.90;;;16.22;100.00;98019.47;5059743;28;20449;-77
2022/07/30 06:03:55;;;;;;;33.10;29.90;;;17.00;99.90;;;16.55;99.30;98020.44;5058026;28;20521;-74
2022/07/30 06:06:23;;;;;;;31.57;28.47;;;17.30;99.90;;;16.71;97.27;98026.88;5066442;28;20471;-75
2022/07/30 06:08:51;;;;;;;33.60;30.40;;;17.50;99.90;;;16.94;95.66;98013.22;5062868;28;20448;-79
2022/07/30 06:11:19;;;;;;;32.30;29.20;;;17.70;99.90;;;16.88;95.41;97997.88;5059891;28;20463;-83
2022/07/30 06:13:46;;;;;;;31.10;28.20;;;17.80;99.90;;;17.05;94.61;98006.81;5063382;28;20778;-75
2022/07/30 06:16:13;;;;;;;30.47;27.47;;;17.90;99.90;;;17.44;93.00;98015.88;5061079;28;20520;-71
2022/07/30 06:18:41;;;;;;;29.80;27.03;;;18.10;99.90;;;17.64;90.25;98016.03;5085029;28;20524;-75
2022/07/30 06:21:08;;;;;;;26.97;24.57;;;18.40;99.60;;;18.18;87.21;98018.88;5066024;28;20451;-75
2022/07/30 06:23:36;;;;;;;24.77;22.57;;;18.90;96.80;;;18.29;85.41;98014.28;5062627;28;20458;-77
2022/07/30 06:26:04;;;;;;;25.47;23.07;;;19.10;94.90;;;18.32;85.14;98014.56;5081103;28;20464;-74
2022/07/30 06:28:31;;;;;;;23.77;21.50;;;19.20;94.60;;;18.45;83.54;98012.44;5061296;28;20444;-76
2022/07/30 06:30:58;;;;;;;22.53;20.53;;;19.30;93.60;;;18.56;83.47;98011.38;5062599;28;20488;-71
2022/07/30 06:33:26;;;;;;;24.17;21.97;;;19.40;93.70;;;18.71;82.11;98015.25;5062592;28;20486;-72
2022/07/30 06:35:53;;;;;;;21.87;19.97;;;19.60;93.00;;;18.67;80.71;98015.78;5058674;28;20448;-72
2022/07/30 06:38:21;;;;;;;20.33;18.20;;;19.60;92.00;;;18.82;80.63;98016.94;5062023;28;20494;-77
2022/07/30 06:40:49;;;;;;;20.33;18.53;;;19.70;91.90;;;19.11;79.59;98013.75;5059909;28;20513;-76
2022/07/30 06:43:18;;;;;;;19.00;17.20;;;19.90;91.60;;;19.14;78.46;98007.72;5063646;28;20462;-76
2022/07/30 06:45:45;;;;;;;19.00;17.40;;;20.00;90.90;;;18.79;78.35;97940.84;5054605;28;20934;-77
2022/07/30 06:48:13;;;;;;;18.67;17.00;;;20.00;90.70;;;18.94;78.42;98003.84;5064769;28;20464;-76
2022/07/30 06:50:41;;;;;;;17.70;16.10;;;20.00;90.50;;;19.03;78.97;98000.56;5062577;28;20489;-75
2022/07/30 06:53:08;;;;;;;15.93;14.63;;;19.90;91.00;;;19.05;77.19;97993.75;5062173;28;20973;-77
2022/07/30 06:55:36;;;;;;;15.87;14.47;;;19.90;90.20;;;19.22;75.91;97988.03;5066641;28;20452;-79
2022/07/30 06:58:04;;;;;;;16.10;14.70;;;20.00;89.60;;;19.39;74.65;97998.69;5065613;28;20485;-75
2022/07/30 07:00:34;;;;;;;15.93;14.47;;;20.20;88.60;;;19.36;74.19;98006.66;5064405;28;20565;-79
2022/07/30 07:03:01;;;;;;;16.10;14.67;;;20.20;88.20;;;18.97;75.08;97964.16;5059522;28;20490;-74
2022/07/30 07:05:29;;;;;;;13.03;11.93;;;20.20;88.60;;;19.16;74.03;97991.03;5063693;28;20499;-78
2022/07/30 07:07:57;;;;;;;14.07;12.83;;;20.20;87.70;;;19.26;73.88;98015.69;5063508;28;20822;-77
2022/07/30 07:10:24;;;;;;;11.90;10.90;;;20.20;87.50;;;19.16;74.17;98016.47;5062889;28;20455;-77
2022/07/30 07:12:51;;;;;;;12.27;11.27;;;20.00;87.80;;;19.17;73.12;98001.69;5061761;28;20480;-77
2022/07/30 07:15:20;;;;;;;11.60;10.60;;;20.10;87.00;;;19.48;72.08;98004.44;5051788;28;20483;-75
2022/07/30 07:17:48;;;;;;;12.00;11.00;;;20.30;86.70;;;19.80;71.76;98018.97;5057837;28;20458;-77
2022/07/30 07:20:15;;;;;;;11.30;10.30;;;20.50;86.80;;;19.91;71.26;98023.34;5062711;28;20462;-77
2022/07/30 07:22:42;;;;;;;11.60;10.70;;;20.70;86.20;;;19.94;71.06;98013.75;5060089;28;20861;-77
2022/07/30 07:25:10;;;;;;;11.17;10.30;;;20.70;85.70;;;20.17;69.98;98017.00;5055422;28;20984;-75
2022/07/30 07:27:38;;;;;;;10.77;9.97;;;20.90;85.30;;;20.33;68.89;98024.06;5062500;28;20463;-76
2022/07/30 07:30:07;;;;;;;10.60;9.77;;;21.10;84.70;;;20.03;68.33;98020.31;5064127;28;20450;-72
2022/07/30 07:32:36;;;;;;;11.60;10.60;;;21.00;83.70;;;19.77;69.86;98022.25;5055857;28;20566;-71
2022/07/30 07:35:04;;;;;;;9.33;8.53;;;20.70;84.50;;;19.44;70.90;98030.75;5088873;27;20464;-72
2022/07/30 07:37:31;;;;;;;10.00;9.20;;;20.40;84.70;;;19.58;69.67;98025.56;5056117;28;20452;-74
2022/07/30 07:39:59;;;;;;;10.03;9.23;;;20.50;84.40;;;19.49;69.54;98028.03;5061393;28;20488;-72
2022/07/30 07:42:26;;;;;;;8.87;8.07;;;20.40;84.00;;;19.49;69.89;98030.78;5061091;28;20967;-72
2022/07/30 07:44:53;;;;;;;10.50;9.70;;;20.30;84.10;;;19.66;69.81;98026.94;5060739;28;20465;-73
2022/07/30 07:47:21;;;;;;;10.30;9.40;;;20.50;84.20;;;19.79;70.81;98026.38;5055798;28;20475;-72
2022/07/30 07:49:49;;;;;;;11.93;10.93;;;20.60;85.10;;;19.43;71.92;98028.31;5064508;28;20489;-73
2022/07/30 07:52:16;;;;;;;12.30;11.30;;;20.40;85.20;;;19.28;72.41;98034.56;5064676;28;20460;-73
2022/07/30 07:54:44;;;;;;;11.07;10.00;;;20.30;85.60;;;19.88;70.88;98045.81;5063875;28;20455;-71
2022/07/30 07:57:11;;;;;;;11.27;10.27;;;20.60;85.80;;;20.21;69.02;98038.09;5058804;28;20459;-72
2022/07/30 07:59:38;;;;;;;10.30;9.40;;;21.00;84.60;;;20.43;66.93;98042.41;5062085;28;20537;-72
2022/07/30 08:02:06;;;;;;;9.23;8.47;;;21.20;83.20;;;21.02;65.36;98036.44;5062977;28;20583;-72
2022/07/30 08:04:33;;;;;;;8.90;8.20;;;21.60;82.60;;;20.78;64.99;98034.31;5069858;28;20463;-72
2022/07/30 08:07:01;;;;;;;10.03;9.23;;;21.90;81.20;;;20.30;66.01;98032.88;5067516;28;20544;-71
2022/07/30 08:09:29;;;;;;;10.60;9.70;;;21.50;81.10;;;20.16;68.05;98037.28;5069783;28;20448;-73
2022/07/30 08:11:56;;;;;;;10.60;9.80;;;21.10;82.50;;;20.13;67.64;98040.59;5060766;28;20952;-73
2022/07/30 08:14:24;;;;;;;9.90;9.10;;;21.10;82.50;;;20.22;67.52;98047.13;5062883;28;20469;-72
2022/07/30 08:16:51;;;;;;;9.93;9.13;;;20.90;82.80;;;20.72;66.07;98043.69;5057581;28;20458;-73
2022/07/30 08:19:19;;;;;;;10.87;10.00;;;21.30;82.40;;;20.59;65.99;98043.19;5057128;28;20479;-72
2022/07/30 08:21:46;;;;;;;9.27;8.57;;;21.40;82.00;;;20.99;64.70;98042.47;5071028;28;20496;-74
2022/07/30 08:24:16;;;;;;;8.63;8.00;;;21.70;81.60;;;20.82;64.37;98043.66;5060008;28;20456;-71
2022/07/30 08:26:43;;;;;;;9.43;8.63;;;21.80;80.90;;;20.73;65.06;98048.88;5057799;28;20460;-73
2022/07/30 08:29:11;;;;;;;8.13;7.43;;;21.60;81.20;;;20.59;65.36;98047.84;5057564;28;20446;-71
2022/07/30 08:31:38;;;;;;;8.53;7.70;;;21.50;81.20;;;20.47;65.61;98007.03;5063549;28;21091;-74
2022/07/30 08:34:05;;;;;;;9.20;8.60;;;21.50;81.60;;;20.43;66.37;98044.34;5061175;28;20464;-72
2022/07/30 08:36:33;;;;;;;9.73;8.90;;;21.40;81.30;;;20.43;66.42;98053.41;5053995;28;20926;-73
2022/07/30 08:39:00;;;;;;;9.90;9.10;;;21.40;81.50;;;20.75;65.42;98045.88;5064394;28;20478;-73
2022/07/30 08:41:29;;;;;;;9.80;9.10;;;21.50;81.40;;;21.28;63.92;98053.56;5063896;28;20481;-74
2022/07/30 08:44:00;;;;;;;9.30;8.50;;;22.00;81.00;;;21.30;63.53;98047.75;5061117;28;20473;-73
2022/07/30 08:46:32;;;;;;;8.87;8.13;;;22.10;80.30;;;21.60;62.64;98051.41;5060906;28;20549;-76
2022/07/30 08:49:01;;;;;;;8.07;7.43;;;22.40;79.80;;;22.15;61.21;98050.38;5059451;28;20483;-75
2022/07/30 08:51:28;;;;;;;8.90;8.20;;;22.80;79.60;;;22.39;60.08;98049.59;5056825;28;20969;-75
2022/07/30 08:53:56;;;;;;;9.10;8.40;;;23.10;78.90;;;21.89;60.98;98058.88;5073333;28;20468;-75
2022/07/30 08:56:24;;;;;;;8.67;8.07;;;23.00;78.50;;;21.72;62.00;98054.63;5065120;28;20471;-74
2022/07/30 08:58:53;;;;;;;8.97;8.20;;;22.60;79.20;;;22.16;62.09;98069.38;5063030;28;20471;-76
2022/07/30 09:01:22;;;;;;;9.90;8.47;;;22.80;79.50;;;22.38;60.85;98075.47;5058394;28;20460;-74
2022/07/30 09:03:49;;;;;;;8.30;7.70;;;23.20;79.00;;;22.37;60.65;98069.13;5062215;28;20452;-75
2022/07/30 09:06:17;;;;;;;9.87;9.17;;;23.20;78.60;;;21.94;61.02;98058.84;5058350;28;20928;-75
2022/07/30 09:08:44;;;;;;;8.63;7.80;;;23.00;78.00;;;21.99;61.50;98075.28;5059262;28;20518;-74
2022/07/30 09:11:12;;;;;;;10.00;9.20;;;22.90;78.30;;;21.37;62.52;98084.81;5061106;28;20470;-72
2022/07/30 09:13:41;;;;;;;9.10;8.40;;;22.50;78.30;;;20.96;63.64;98087.81;5057106;28;20457;-75
2022/07/30 09:16:20;;;;;;;9.40;8.70;;;22.00;78.80;;;21.12;64.03;98085.78;5052597;28;20465;-75
2022/07/30 09:18:48;;;;;;;9.33;8.63;;;22.00;79.50;;;20.70;64.66;98087.03;5061065;28;20595;-76
2022/07/30 09:21:18;;;;;;;8.30;7.70;;;21.60;79.40;;;20.84;64.78;98079.88;5062380;28;21021;-77
2022/07/30 09:23:57;;;;;;;8.50;7.80;;;21.60;80.60;;;21.56;62.89;98072.31;5064119;28;20567;-77
2022/07/30 09:26:25;;;;;;;8.37;7.77;;;22.20;80.00;;;21.87;61.06;98085.84;5058042;28;20902;-76
2022/07/30 09:28:53;;;;;;;8.53;7.87;;;22.50;78.40;;;22.00;59.32;98076.13;5064460;28;20467;-77
2022/07/30 09:31:22;;;;;;;6.10;5.60;;;22.60;77.10;;;22.77;57.99;98071.72;5062627;28;20843;-76
2022/07/30 09:33:50;;;;;;;6.47;6.07;;;23.20;77.20;;;22.67;57.15;98044.31;5063637;28;20457;-77
2022/07/30 09:36:18;;;;;;;6.80;6.20;;;23.60;76.00;;;21.76;59.60;98088.72;5059918;28;20879;-78
2022/07/30 09:38:50;;;;;;;7.50;7.00;;;22.80;75.70;;;21.22;61.37;98091.22;5063784;28;20544;-77
2022/07/30 09:41:34;;;;;;;6.27;5.77;;;22.00;76.90;;;21.73;60.77;98077.44;5060688;28;21124;-75
2022/07/30 09:44:05;;;;;;;6.97;6.47;;;22.20;77.60;;;21.72;60.03;98087.63;5061047;28;20508;-75
2022/07/30 09:46:46;;;;;;;5.33;5.00;;;22.40;76.80;;;22.37;57.70;98071.88;5057209;28;20456;-77
2022/07/30 09:49:17;;;;;;;7.50;6.03;;;22.90;75.80;;;22.68;57.50;98079.03;5069089;28;20543;-75
2022/07/30 09:51:45;;;;;;;6.50;6.00;;;23.30;75.80;;;22.71;57.44;98075.66;5087335;28;20458;-78
2022/07/30 09:54:12;;;;;;;6.63;5.90;;;23.40;75.40;;;22.24;58.71;98073.41;5104297;28;20466;-72
2022/07/30 09:56:42;;;;;;;7.50;5.77;;;22.90;75.70;;;22.19;57.51;98065.19;5087379;28;20440;-73
2022/07/30 09:59:27;;;;;;;5.93;5.43;;;23.00;74.60;;;22.30;56.54;98069.47;5101546;28;20499;-77
2022/07/30 10:01:57;;;;;;;5.93;5.50;;;23.00;73.90;;;22.16;56.09;98074.88;5079955;28;20524;-72
2022/07/30 10:04:26;;;;;;;6.37;5.97;;;22.90;73.30;;;21.96;58.01;98067.63;5068430;28;20464;-79
2022/07/30 10:06:55;;;;;;;5.53;5.23;;;22.80;74.40;;;21.95;57.37;98077.00;5069177;28;20472;-75
2022/07/30 10:09:28;;;;;;;5.10;4.70;;;22.70;74.20;;;22.34;55.99;98073.28;5077402;28;20454;-77
2022/07/30 10:11:57;;;;;;;6.23;5.63;;;23.00;73.60;;;22.06;55.76;98078.53;5075084;28;21013;-76
2022/07/30 10:14:29;;;;;;;4.23;3.93;;;23.00;72.50;;;21.74;56.34;98073.59;5070268;28;20456;-76